Time;durP1;ratioP1;P1;durP2;ratioP2;P2;SDS_P1;SDS_P2;PMS_P1;PMS_P2;Temp;Humidity;BMP_temperature;BMP_pressure;BME280_temperature;BME280_humidity;BME280_pressure;Samples;Min_cycle;Max_cycle;Signal;HPM_P1;HPM_P2
2022/05/16 00:00:28;;;;;;;2.58;2.20;;;;;;;17.74;49.23;95590.41;5012364;28;20599;-75
2022/05/16 00:02:54;;;;;;;3.63;2.30;;;;;;;17.74;49.71;95584.34;5014084;28;20213;-75
2022/05/16 00:05:19;;;;;;;6.45;1.85;;;;;;;17.68;49.25;95583.31;4996097;28;20206;-77
2022/05/16 00:07:45;;;;;;;2.72;2.00;;;;;;;17.63;49.67;95585.66;5013214;28;20671;-75
2022/05/16 00:10:11;;;;;;;4.88;1.98;;;;;;;17.67;49.34;95572.97;5009306;28;20572;-75
2022/05/16 00:12:37;;;;;;;5.75;1.90;;;;;;;17.62;49.75;95581.44;5037067;28;20653;-74
2022/05/16 00:15:04;;;;;;;2.85;2.10;;;;;;;17.61;50.05;95576.38;4992721;28;20208;-75
2022/05/16 00:17:29;;;;;;;4.03;1.90;;;;;;;17.46;50.69;95579.88;4994498;28;20211;-75
2022/05/16 00:19:54;;;;;;;2.95;2.10;;;;;;;17.48;51.06;95570.00;4993169;28;20205;-76
2022/05/16 00:22:20;;;;;;;3.78;2.20;;;;;;;17.39;51.66;95570.31;4993188;28;20550;-76
2022/05/16 00:24:45;;;;;;;3.20;2.20;;;;;;;17.42;51.66;95564.72;4976115;28;20195;-75
2022/05/16 00:27:11;;;;;;;2.15;1.73;;;;;;;17.52;51.72;95568.63;5010663;28;20711;-76
2022/05/16 00:29:38;;;;;;;3.38;2.00;;;;;;;17.47;51.93;95562.31;4976794;28;20645;-75
2022/05/16 00:32:03;;;;;;;2.67;1.92;;;;;;;17.58;51.92;95558.34;4993349;28;20241;-74
2022/05/16 00:34:29;;;;;;;5.07;2.47;;;;;;;17.59;52.03;95563.44;4997640;28;20179;-77
2022/05/16 00:36:54;;;;;;;3.50;2.15;;;;;;;17.57;52.29;95560.16;5004132;28;20210;-75
2022/05/16 00:39:21;;;;;;;2.30;2.10;;;;;;;17.60;52.33;95554.56;5016182;28;20178;-75
2022/05/16 00:41:47;;;;;;;3.35;2.28;;;;;;;17.49;52.93;95558.50;5033862;28;20178;-75
2022/05/16 00:44:12;;;;;;;3.83;2.20;;;;;;;17.50;52.78;95554.88;4999305;28;20181;-76
2022/05/16 00:46:38;;;;;;;4.53;2.30;;;;;;;17.49;53.09;95549.78;5015972;28;20194;-75
2022/05/16 00:49:05;;;;;;;5.82;2.40;;;;;;;17.32;53.62;95551.09;5016114;28;20674;-76
2022/05/16 00:51:32;;;;;;;2.60;2.13;;;;;;;17.22;54.09;95554.00;4999821;28;20186;-76
2022/05/16 00:54:03;;;;;;;2.70;2.20;;;;;;;17.17;54.41;95543.28;4999017;28;20178;-75
2022/05/16 00:56:28;;;;;;;3.35;2.05;;;;;;;17.13;54.30;95548.09;5015975;28;20240;-76
2022/05/16 00:58:54;;;;;;;2.33;2.13;;;;;;;17.14;54.30;95541.88;5015130;28;20174;-76
2022/05/16 01:06:49;;;;;;;3.10;2.05;;;;;;;16.97;55.55;95543.91;5018654;28;20271;-76
2022/05/16 01:09:14;;;;;;;2.83;2.22;;;;;;;17.01;55.50;95535.66;5015654;28;20647;-76
2022/05/16 01:11:40;;;;;;;3.60;2.40;;;;;;;17.12;55.21;95537.78;4999392;28;20639;-77
2022/05/16 01:14:06;;;;;;;5.43;2.75;;;;;;;17.22;55.18;95536.47;5015272;28;20182;-75
2022/05/16 01:16:31;;;;;;;4.15;2.55;;;;;;;17.23;55.98;95534.66;4999084;28;20252;-76
2022/05/16 01:18:57;;;;;;;5.53;2.97;;;;;;;17.25;55.79;95530.84;5015856;28;20170;-76
2022/05/16 01:21:34;;;;;;;7.10;3.30;;;;;;;17.52;55.81;95531.88;5015508;28;20659;-76
2022/05/16 01:24:09;;;;;;;5.03;2.90;;;;;;;17.41;56.42;95534.22;4998510;28;20281;-76
2022/05/16 01:26:35;;;;;;;3.97;3.22;;;;;;;17.36;56.39;95539.22;4999168;28;20198;-75
2022/05/16 01:29:01;;;;;;;6.80;2.72;;;;;;;17.33;56.08;95531.72;4995919;28;20183;-76
2022/05/16 01:31:27;;;;;;;4.45;2.78;;;;;;;17.31;56.34;95531.88;4995661;28;20190;-75
2022/05/16 01:33:52;;;;;;;3.00;2.70;;;;;;;17.26;56.89;95531.66;5011298;28;20171;-76
2022/05/16 01:36:18;;;;;;;4.38;2.97;;;;;;;17.48;56.99;95525.34;4995445;28;20294;-76
2022/05/16 01:38:43;;;;;;;5.60;2.80;;;;;;;17.54;57.51;95527.22;5013068;28;20175;-76
2022/05/16 01:41:11;;;;;;;4.30;2.78;;;;;;;17.69;56.99;95515.81;5013137;28;20193;-76
2022/05/16 01:43:39;;;;;;;4.63;3.08;;;;;;;17.65;57.27;95515.38;5027389;28;20227;-75
2022/05/16 01:46:06;;;;;;;3.13;2.63;;;;;;;17.68;57.62;95522.91;4978926;28;20282;-76
2022/05/16 01:48:31;;;;;;;3.88;3.17;;;;;;;17.75;57.54;95529.00;5028233;28;20233;-76
2022/05/16 01:50:59;;;;;;;3.50;3.20;;;;;;;17.69;57.68;95519.25;4995340;28;20175;-76
2022/05/16 01:53:24;;;;;;;4.03;3.22;;;;;;;17.61;57.80;95523.84;4995278;28;20183;-76
2022/05/16 01:55:50;;;;;;;3.58;2.83;;;;;;;17.53;58.10;95522.19;4994749;28;20207;-75
2022/05/16 01:58:15;;;;;;;5.50;3.35;;;;;;;17.50;58.44;95517.31;4995311;28;20175;-76
2022/05/16 02:00:40;;;;;;;5.47;3.13;;;;;;;17.59;58.20;95521.41;4994332;28;20798;-76
2022/05/16 02:03:06;;;;;;;4.03;2.90;;;;;;;17.48;58.12;95520.09;4994997;28;20187;-75
2022/05/16 02:05:32;;;;;;;6.97;3.40;;;;;;;17.39;58.48;95516.00;4978123;28;20274;-76
2022/05/16 02:07:57;;;;;;;4.30;3.30;;;;;;;17.30;59.30;95505.84;4994964;28;20592;-76
2022/05/16 02:10:24;;;;;;;3.53;2.88;;;;;;;17.26;59.50;95502.78;4995049;28;20179;-76
2022/05/16 02:12:50;;;;;;;6.05;3.10;;;;;;;17.21;59.95;95500.72;4994944;28;20549;-76
2022/05/16 02:15:19;;;;;;;3.58;3.28;;;;;;;17.24;59.90;95497.75;4994304;28;20678;-77
2022/05/16 02:17:45;;;;;;;4.55;3.38;;;;;;;17.25;60.14;95504.59;4994537;28;20265;-76
2022/05/16 02:20:11;;;;;;;3.78;3.30;;;;;;;17.23;60.42;95508.44;5012316;28;20636;-76
2022/05/16 02:25:21;;;;;;;4.05;3.38;;;;;;;17.33;60.32;95510.72;4996683;28;20735;-76
2022/05/16 02:27:48;;;;;;;4.07;3.00;;;;;;;17.28;60.84;95509.47;4994636;28;20183;-77
2022/05/16 02:30:14;;;;;;;4.00;3.20;;;;;;;17.22;61.78;95515.47;4994563;28;20171;-76
2022/05/16 02:32:39;;;;;;;3.88;3.25;;;;;;;17.16;61.52;95518.88;5027615;28;20181;-76
2022/05/16 02:35:05;;;;;;;5.75;3.30;;;;;;;17.14;61.70;95513.00;4993888;28;20186;-74
2022/05/16 02:37:31;;;;;;;5.13;3.33;;;;;;;17.16;62.23;95524.09;5027591;28;20211;-76
2022/05/16 02:39:56;;;;;;;5.75;3.70;;;;;;;17.12;61.99;95519.41;5027255;28;20183;-76
2022/05/16 02:42:22;;;;;;;4.03;3.35;;;;;;;17.20;61.94;95522.72;4994518;28;20183;-76
2022/05/16 02:44:47;;;;;;;6.38;3.58;;;;;;;17.28;62.31;95517.34;5011485;28;20515;-75
2022/05/16 02:47:17;;;;;;;3.95;3.35;;;;;;;17.58;61.86;95525.06;5026735;28;20199;-75
2022/05/16 02:49:43;;;;;;;5.13;3.30;;;;;;;17.55;61.35;95528.03;5012858;28;20171;-76
2022/05/16 02:52:09;;;;;;;5.43;3.15;;;;;;;17.70;61.13;95531.41;5011619;28;20171;-75
2022/05/16 02:54:34;;;;;;;14.45;3.42;;;;;;;18.04;60.45;95519.31;5010473;28;20186;-75
2022/05/16 02:57:00;;;;;;;3.45;3.10;;;;;;;17.98;60.64;95539.25;5002404;28;20290;-75
2022/05/16 02:59:27;;;;;;;4.20;3.17;;;;;;;18.05;59.85;95532.25;4993845;28;20630;-76
2022/05/16 03:01:53;;;;;;;4.07;3.30;;;;;;;18.04;60.32;95535.88;4994706;28;20241;-76
2022/05/16 03:04:18;;;;;;;7.55;3.95;;;;;;;18.06;59.72;95544.38;4993718;28;20187;-76
2022/05/16 03:06:43;;;;;;;6.40;3.13;;;;;;;18.13;59.68;95531.28;4994189;28;20194;-76
2022/05/16 03:09:09;;;;;;;5.35;2.80;;;;;;;18.04;57.35;95553.47;4994164;28;20175;-76
2022/05/16 03:11:34;;;;;;;5.30;2.80;;;;;;;17.73;58.07;95553.84;5010640;28;20197;-76
2022/05/16 03:14:00;;;;;;;3.78;2.70;;;;;;;17.55;58.86;95552.47;4993560;28;20183;-76
2022/05/16 03:16:25;;;;;;;3.65;2.80;;;;;;;17.30;59.01;95555.69;4994190;28;20215;-75
2022/05/16 03:18:51;;;;;;;5.22;2.92;;;;;;;17.04;59.73;95553.66;4977954;28;20556;-75
2022/05/16 03:21:16;;;;;;;2.63;2.42;;;;;;;16.88;60.11;95555.53;5011586;28;20257;-77
2022/05/16 03:23:42;;;;;;;5.43;2.60;;;;;;;16.64;61.42;95551.41;5010895;28;20172;-76
2022/05/16 03:26:07;;;;;;;5.80;2.95;;;;;;;16.62;62.67;95555.22;4993423;28;20213;-76
2022/05/16 03:28:32;;;;;;;4.53;2.83;;;;;;;16.57;63.50;95553.13;4993963;28;20225;-75
2022/05/16 03:30:59;;;;;;;3.70;2.90;;;;;;;16.52;63.85;95560.75;4993948;28;20197;-76
2022/05/16 03:33:25;;;;;;;3.90;3.10;;;;;;;16.56;63.96;95553.31;4993875;28;20182;-76
2022/05/16 03:35:55;;;;;;;5.32;3.13;;;;;;;16.49;64.62;95552.44;5009146;28;20199;-76
2022/05/16 03:41:09;;;;;;;5.30;3.38;;;;;;;16.54;64.27;95556.13;4996643;28;20270;-76
2022/05/16 03:43:36;;;;;;;6.57;3.60;;;;;;;16.59;64.66;95558.19;4993483;28;20182;-76
2022/05/16 03:46:02;;;;;;;5.82;3.00;;;;;;;16.58;64.30;95562.63;4993426;28;20285;-76
2022/05/16 03:48:27;;;;;;;4.13;3.03;;;;;;;16.60;64.77;95562.44;4993560;28;20640;-74
2022/05/16 03:50:53;;;;;;;5.57;3.15;;;;;;;16.59;65.63;95566.88;5010990;28;20183;-76
2022/05/16 03:53:18;;;;;;;7.15;3.40;;;;;;;16.69;65.38;95577.09;4993590;28;20171;-76
2022/05/16 03:55:43;;;;;;;5.97;3.30;;;;;;;16.86;64.90;95573.25;5010544;28;20196;-76
2022/05/16 03:58:08;;;;;;;5.95;3.17;;;;;;;16.92;64.54;95576.94;5011101;28;20721;-76
2022/05/16 04:00:34;;;;;;;5.10;3.53;;;;;;;16.98;64.02;95587.50;4992758;28;20222;-75
2022/05/16 04:02:59;;;;;;;4.85;3.10;;;;;;;17.16;63.65;95587.09;5010864;28;20176;-76
2022/05/16 04:05:25;;;;;;;8.57;3.25;;;;;;;17.23;64.18;95585.34;4976480;28;20202;-76
2022/05/16 04:07:51;;;;;;;5.10;3.38;;;;;;;17.38;61.86;95581.81;4995394;28;20175;-75
2022/05/16 04:10:16;;;;;;;5.72;3.22;;;;;;;17.75;58.96;95581.53;4981030;28;20182;-75
2022/05/16 04:12:42;;;;;;;6.15;3.35;;;;;;;17.80;59.53;95589.66;4997301;28;20190;-76
2022/05/16 04:15:09;;;;;;;7.38;3.08;;;;;;;17.76;59.82;95585.81;5014147;28;20186;-77
2022/05/16 04:17:35;;;;;;;7.18;3.60;;;;;;;17.81;59.48;95582.59;5013109;28;20215;-76
2022/05/16 04:20:00;;;;;;;3.47;2.90;;;;;;;17.78;60.34;95583.00;4997168;28;20538;-75
2022/05/16 04:22:26;;;;;;;6.15;4.20;;;;;;;17.85;61.35;95586.47;5023091;28;20253;-76
2022/05/16 04:24:51;;;;;;;6.22;2.67;;;;;;;17.89;61.35;95584.28;5014806;28;20205;-76
2022/05/16 04:27:16;;;;;;;8.05;3.25;;;;;;;17.75;61.96;95589.41;5008976;28;20218;-74
2022/05/16 04:29:42;;;;;;;6.95;3.47;;;;;;;17.79;60.97;95593.31;4997732;28;20285;-76
2022/05/16 04:32:07;;;;;;;4.35;2.80;;;;;;;17.73;61.29;95590.63;4998294;28;20218;-75
2022/05/16 04:34:32;;;;;;;4.78;3.10;;;;;;;17.83;60.89;95591.09;5015255;28;20178;-77
2022/05/16 04:36:58;;;;;;;3.53;2.85;;;;;;;17.82;61.08;95592.09;5015603;28;20759;-76
2022/05/16 04:39:23;;;;;;;5.57;3.30;;;;;;;17.71;61.63;95590.00;5015401;28;20644;-75
2022/05/16 04:44:38;;;;;;;4.40;2.78;;;;;;;17.77;61.20;95587.44;5017536;28;20177;-76
2022/05/16 04:47:07;;;;;;;4.85;3.15;;;;;;;17.76;61.80;95591.06;5014999;28;20186;-74
2022/05/16 04:49:33;;;;;;;5.93;3.47;;;;;;;17.87;61.49;95588.91;5015545;28;20183;-76
2022/05/16 04:51:58;;;;;;;4.50;3.50;;;;;;;17.88;61.26;95588.72;5015493;28;20190;-74
2022/05/16 04:54:24;;;;;;;4.07;3.05;;;;;;;17.85;61.34;95588.31;5016618;28;20201;-76
2022/05/16 04:56:51;;;;;;;4.55;3.65;;;;;;;17.81;61.30;95587.84;5019397;28;20295;-77
2022/05/16 04:59:17;;;;;;;5.15;3.53;;;;;;;17.79;60.99;95582.78;5041778;28;20170;-77
2022/05/16 05:01:42;;;;;;;4.05;2.78;;;;;;;17.80;61.28;95586.22;5007511;28;20185;-77
2022/05/16 05:04:07;;;;;;;4.38;3.53;;;;;;;17.87;61.12;95581.84;5023398;28;20240;-76
2022/05/16 05:06:34;;;;;;;5.90;3.80;;;;;;;17.80;61.56;95584.41;5022531;28;20213;-78
2022/05/16 05:08:59;;;;;;;3.80;3.40;;;;;;;17.89;61.11;95581.66;5001078;28;20289;-76
2022/05/16 05:16:52;;;;;;;5.38;3.42;;;;;;;18.22;60.87;95603.69;5018012;28;20595;-76
2022/05/16 05:19:17;;;;;;;3.92;3.53;;;;;;;18.33;60.37;95604.97;4998874;28;20183;-77
2022/05/16 05:21:43;;;;;;;5.38;3.20;;;;;;;18.50;60.31;95594.94;4999194;28;20182;-76
2022/05/16 05:24:09;;;;;;;4.50;3.35;;;;;;;18.53;61.16;95599.78;5027889;28;20217;-76
2022/05/16 05:26:35;;;;;;;3.95;3.40;;;;;;;18.72;60.27;95609.63;5039735;28;20250;-75
2022/05/16 05:29:01;;;;;;;3.92;3.58;;;;;;;18.73;62.34;95613.06;5030503;28;20258;-76
2022/05/16 05:31:28;;;;;;;4.25;3.60;;;;;;;18.86;61.00;95619.19;5025361;28;20564;-76
2022/05/16 05:33:54;;;;;;;3.80;2.95;;;;;;;19.87;57.98;95621.81;5006475;28;20305;-76
2022/05/16 05:36:19;;;;;;;5.18;3.50;;;;;;;20.41;55.92;95619.91;5016121;28;20688;-77
2022/05/16 05:38:45;;;;;;;5.22;3.70;;;;;;;20.46;55.38;95623.59;5000266;28;20191;-76
2022/05/16 05:41:10;;;;;;;3.67;3.35;;;;;;;20.51;55.84;95628.25;5032849;28;20202;-77
2022/05/16 05:43:36;;;;;;;3.65;3.15;;;;;;;20.50;55.37;95635.34;5033692;28;20178;-77
2022/05/16 05:46:03;;;;;;;4.95;3.20;;;;;;;21.05;52.66;95635.75;5016671;28;20198;-77
2022/05/16 05:48:28;;;;;;;9.10;4.03;;;;;;;21.66;51.97;95637.06;5017571;28;20178;-77
2022/05/16 05:50:54;;;;;;;6.65;3.63;;;;;;;22.09;49.80;95641.63;5017326;28;20189;-77
2022/05/16 05:53:19;;;;;;;6.05;3.40;;;;;;;22.85;48.34;95642.09;5016422;28;20201;-76
2022/05/16 05:55:47;;;;;;;7.60;3.53;;;;;;;23.84;45.18;95647.09;5016054;28;20687;-77
2022/05/16 05:58:15;;;;;;;4.35;3.35;;;;;;;23.23;46.16;95646.28;4995959;28;20719;-78
2022/05/16 06:00:41;;;;;;;5.07;3.45;;;;;;;23.14;46.83;95643.13;5022207;28;20175;-77
2022/05/16 06:03:07;;;;;;;4.45;3.53;;;;;;;22.40;48.93;95648.66;4998207;28;20648;-77
2022/05/16 06:05:33;;;;;;;5.05;3.40;;;;;;;22.14;49.73;95644.44;5016718;28;20236;-77
2022/05/16 06:07:58;;;;;;;3.80;3.10;;;;;;;21.66;51.24;95648.44;5034718;28;20178;-77
2022/05/16 06:10:23;;;;;;;6.53;4.13;;;;;;;21.32;52.56;95654.13;5015002;28;20183;-76
2022/05/16 06:12:49;;;;;;;5.45;3.72;;;;;;;21.16;52.04;95643.00;5015649;28;20177;-75
2022/05/16 06:15:14;;;;;;;5.82;3.35;;;;;;;20.96;53.18;95647.56;5021004;28;20202;-76
2022/05/16 06:17:40;;;;;;;6.88;3.67;;;;;;;21.01;53.32;95653.03;5015242;28;20210;-75
2022/05/16 06:20:08;;;;;;;4.82;3.58;;;;;;;20.69;54.43;95664.53;5019421;28;20174;-77
2022/05/16 06:22:38;;;;;;;5.25;3.35;;;;;;;20.29;55.53;95664.56;5027125;28;20178;-77
2022/05/16 06:27:49;;;;;;;7.00;4.20;;;;;;;20.32;56.18;95667.63;5023799;28;20623;-76
2022/05/16 06:30:17;;;;;;;6.35;3.70;;;;;;;20.55;55.45;95675.09;5014502;28;20205;-76
2022/05/16 06:32:42;;;;;;;4.68;4.00;;;;;;;20.56;55.73;95671.44;5004869;28;20664;-77
2022/05/16 06:35:08;;;;;;;6.43;3.53;;;;;;;20.49;56.44;95678.56;5014383;28;20178;-77
2022/05/16 06:37:33;;;;;;;4.80;3.80;;;;;;;20.57;55.78;95680.97;5019285;28;20530;-77
2022/05/16 06:39:59;;;;;;;7.65;3.60;;;;;;;20.69;55.57;95686.44;5015529;28;20186;-77
2022/05/16 06:42:24;;;;;;;5.25;3.30;;;;;;;20.63;55.53;95685.44;5014638;28;20186;-76
2022/05/16 06:44:51;;;;;;;4.50;3.95;;;;;;;20.54;55.77;95688.50;4998849;28;20688;-76
2022/05/16 06:47:17;;;;;;;4.22;3.28;;;;;;;20.76;55.51;95689.88;5043196;28;20244;-75
2022/05/16 06:49:42;;;;;;;3.60;3.10;;;;;;;20.94;55.35;95691.84;5032770;28;20652;-76
2022/05/16 06:52:08;;;;;;;4.03;3.25;;;;;;;21.32;53.64;95689.28;5044260;28;20212;-75
2022/05/16 06:54:33;;;;;;;4.47;3.63;;;;;;;21.81;52.59;95692.22;5001933;28;20206;-76
2022/05/16 06:56:58;;;;;;;5.63;3.60;;;;;;;22.25;51.80;95697.41;5014854;28;20248;-76
2022/05/16 06:59:24;;;;;;;4.88;3.63;;;;;;;22.27;52.40;95698.03;5015620;28;20194;-76
2022/05/16 07:01:49;;;;;;;4.00;3.55;;;;;;;21.94;52.79;95702.72;5003534;28;20220;-75
2022/05/16 07:04:14;;;;;;;6.20;3.63;;;;;;;22.26;52.41;95701.72;4991580;28;20676;-76
2022/05/16 07:06:39;;;;;;;6.13;3.75;;;;;;;22.27;52.94;95702.50;5047194;28;20209;-75
2022/05/16 07:09:05;;;;;;;4.13;3.72;;;;;;;21.84;54.27;95702.41;5021659;28;20186;-75
2022/05/16 07:11:32;;;;;;;4.20;3.40;;;;;;;22.19;53.05;95711.53;4995196;28;20185;-76
2022/05/16 07:13:57;;;;;;;3.63;3.33;;;;;;;22.08;53.50;95701.63;5009357;28;20235;-76
2022/05/16 07:16:23;;;;;;;4.25;3.47;;;;;;;22.06;53.94;95706.28;5014696;28;20206;-76
2022/05/16 07:18:48;;;;;;;6.88;3.97;;;;;;;22.04;54.04;95709.16;4995299;28;20261;-76
2022/05/16 07:21:13;;;;;;;4.18;3.72;;;;;;;;;;5010870;28;20545;-74
2022/05/16 07:23:39;;;;;;;4.03;3.53;;;;;;;23.26;51.53;95722.69;5026602;28;20182;-76
2022/05/16 07:28:47;;;;;;;6.28;3.97;;;;;;;24.00;49.30;95712.72;5020835;28;20563;-76
2022/05/16 07:31:13;;;;;;;7.07;3.58;;;;;;;23.53;50.48;95717.88;5001199;28;20225;-77
2022/05/16 07:33:38;;;;;;;6.75;4.13;;;;;;;23.67;50.39;95721.97;5017303;28;20186;-77
2022/05/16 07:36:04;;;;;;;5.78;3.60;;;;;;;23.52;49.92;95726.03;5030668;28;20709;-79
2022/05/16 07:38:30;;;;;;;4.75;3.72;;;;;;;23.88;49.41;95728.63;5015332;28;20185;-78
2022/05/16 07:40:56;;;;;;;5.43;3.92;;;;;;;23.89;49.50;95727.59;5017000;28;20324;-78
2022/05/16 07:43:21;;;;;;;8.40;3.80;;;;;;;23.69;49.99;95729.72;5013645;28;20293;-77
2022/05/16 07:45:47;;;;;;;7.25;4.50;;;;;;;23.67;49.83;95737.88;5017305;28;20195;-77
2022/05/16 07:48:13;;;;;;;7.68;3.83;;;;;;;23.33;51.21;95741.97;4998895;28;20184;-75
2022/05/16 07:50:39;;;;;;;8.35;4.10;;;;;;;23.31;51.53;95749.31;5017439;28;20186;-76
2022/05/16 07:53:11;;;;;;;5.00;3.50;;;;;;;23.08;52.80;95751.84;5022470;28;20192;-77
2022/05/16 07:55:37;;;;;;;5.63;3.85;;;;;;;22.83;53.76;95760.63;5005327;28;20623;-78
2022/05/16 07:58:03;;;;;;;6.38;4.20;;;;;;;22.69;53.44;95755.66;5033759;28;20268;-77
2022/05/16 08:00:28;;;;;;;6.60;4.20;;;;;;;23.07;52.10;95763.47;5005161;28;20618;-77
2022/05/16 08:02:53;;;;;;;5.30;3.80;;;;;;;23.43;50.25;95765.28;5006752;28;20217;-79
2022/05/16 08:05:19;;;;;;;6.03;3.97;;;;;;;23.57;50.01;95773.88;5053665;28;20201;-78
2022/05/16 08:10:29;;;;;;;5.75;4.28;;;;;;;23.74;50.85;95777.56;5058840;28;20216;-82
2022/05/16 08:12:55;;;;;;;6.22;4.45;;;;;;;23.59;50.49;95769.16;5014698;28;20695;-81
2022/05/16 08:15:20;;;;;;;4.60;4.10;;;;;;;23.84;50.79;95777.81;5037951;28;20251;-82
2022/05/16 08:17:46;;;;;;;8.50;4.45;;;;;;;24.13;48.61;95768.25;5014376;28;20217;-81
2022/05/16 08:20:11;;;;;;;5.28;3.75;;;;;;;24.01;47.63;95773.50;5042113;28;20553;-81
2022/05/16 08:22:36;;;;;;;6.07;3.95;;;;;;;23.97;47.50;95777.66;5006093;28;20186;-80
2022/05/16 08:25:02;;;;;;;6.95;4.15;;;;;;;24.20;46.51;95782.22;5024432;28;20194;-80
2022/05/16 08:27:28;;;;;;;5.25;4.10;;;;;;;24.25;47.38;95789.50;5034052;28;20174;-82
2022/05/16 08:29:54;;;;;;;4.68;3.83;;;;;;;24.63;47.27;95780.34;5042123;28;20186;-81
2022/05/16 08:32:20;;;;;;;5.80;4.35;;;;;;;24.41;47.47;95788.06;5007275;28;20273;-81
2022/05/16 08:34:46;;;;;;;4.68;4.03;;;;;;;24.19;48.69;95787.75;5024682;28;20308;-81
2022/05/16 08:40:04;;;;;;;7.70;4.75;;;;;;;23.81;50.09;95804.81;5039018;28;20226;-80
2022/05/16 08:42:50;;;;;;;9.95;4.93;;;;;;;23.42;52.48;95801.59;5017620;28;20182;-82
2022/05/16 08:45:22;;;;;;;6.68;4.70;;;;;;;22.67;53.99;95798.22;5021295;28;20268;-82
2022/05/16 08:47:53;;;;;;;5.95;4.03;;;;;;;22.80;53.85;95802.63;5038785;28;20185;-79
2022/05/16 08:50:28;;;;;;;6.88;4.40;;;;;;;23.09;53.41;95806.44;5016013;28;20619;-77
2022/05/16 08:53:03;;;;;;;6.32;3.78;;;;;;;22.77;53.75;95816.25;5024714;28;20185;-76
2022/05/16 08:55:31;;;;;;;8.13;4.50;;;;;;;22.41;56.18;95822.25;5030755;28;20201;-76
2022/05/16 08:58:06;;;;;;;4.65;4.05;;;;;;;22.79;56.30;95814.19;5032818;28;21000;-76
2022/05/16 09:00:52;;;;;;;7.55;4.13;;;;;;;23.04;53.09;95820.31;5022272;28;20185;-77
2022/05/16 09:03:39;;;;;;;6.82;4.38;;;;;;;23.42;51.48;95830.75;5026029;28;20201;-74
2022/05/16 09:06:13;;;;;;;9.75;4.60;;;;;;;23.49;50.36;95832.47;5007362;28;20776;-76
2022/05/16 09:08:49;;;;;;;7.45;3.72;;;;;;;23.26;49.65;95827.88;5003997;28;20193;-76
2022/05/16 09:11:35;;;;;;;6.75;4.20;;;;;;;23.38;50.21;95821.59;5030790;28;20192;-76
2022/05/16 09:14:04;;;;;;;8.45;4.15;;;;;;;23.53;49.65;95825.72;5012878;28;20227;-76
2022/05/16 09:16:50;;;;;;;8.18;4.53;;;;;;;23.38;50.41;95831.38;5011718;28;20274;-77
2022/05/16 09:19:35;;;;;;;8.45;4.15;;;;;;;23.58;49.27;95836.47;5011781;28;20206;-77
2022/05/16 09:22:00;;;;;;;9.18;4.70;;;;;;;23.38;49.73;95837.50;5031726;28;20192;-76
2022/05/16 09:24:35;;;;;;;8.40;4.50;;;;;;;23.36;49.25;95844.06;5037124;28;20266;-76
2022/05/16 09:27:08;;;;;;;6.22;3.85;;;;;;;23.35;49.44;95847.75;5018531;28;20445;-76
2022/05/16 09:29:39;;;;;;;10.13;4.43;;;;;;;23.22;50.45;95853.97;5006346;28;20562;-76
2022/05/16 09:32:30;;;;;;;8.93;4.70;;;;;;;23.25;49.92;95858.84;4999804;28;20183;-77
2022/05/16 09:34:56;;;;;;;7.22;4.18;;;;;;;23.02;51.41;95854.16;5003850;28;20198;-78
2022/05/16 09:37:21;;;;;;;4.68;3.83;;;;;;;23.30;49.84;95861.63;5022298;28;20260;-77
2022/05/16 09:39:48;;;;;;;8.75;3.88;;;;;;;23.77;48.70;95864.63;5004648;28;20179;-76
2022/05/16 09:42:18;;;;;;;6.60;3.72;;;;;;;23.52;47.78;95862.03;5004691;28;20691;-78
2022/05/16 09:44:55;;;;;;;4.93;3.30;;;;;;;23.91;47.71;95868.72;5038327;28;20216;-79
2022/05/16 09:47:34;;;;;;;8.85;3.50;;;;;;;24.40;46.94;95866.91;5012943;28;20182;-77
2022/05/16 09:50:02;;;;;;;7.70;3.42;;;;;;;24.43;46.31;95865.63;5043516;28;20189;-77
2022/05/16 09:52:27;;;;;;;7.47;3.58;;;;;;;24.52;47.08;95878.34;5038725;28;20178;-77
2022/05/16 09:55:03;;;;;;;8.32;3.58;;;;;;;24.54;45.57;95878.91;5018461;28;20229;-78
2022/05/16 09:57:32;;;;;;;8.70;3.50;;;;;;;24.11;46.71;95872.97;5008743;28;20225;-77
2022/05/16 10:00:15;;;;;;;8.38;3.67;;;;;;;24.76;44.97;95865.13;5039097;28;20273;-77
2022/05/16 10:02:41;;;;;;;6.40;3.33;;;;;;;24.82;45.56;95877.47;5023108;28;20182;-78
2022/05/16 10:05:22;;;;;;;8.13;3.17;;;;;;;24.63;45.25;95882.06;5019077;28;20236;-78
2022/05/16 10:07:50;;;;;;;6.53;2.85;;;;;;;25.00;44.69;95877.41;5040961;28;20178;-77
2022/05/16 10:10:19;;;;;;;9.68;3.55;;;;;;;24.87;44.84;95867.00;5039934;28;20201;-75
2022/05/16 10:12:45;;;;;;;8.45;3.45;;;;;;;24.75;45.87;95872.28;5004298;28;20179;-77
2022/05/16 10:15:11;;;;;;;5.97;3.08;;;;;;;24.79;45.65;95880.59;5020581;28;20213;-76
2022/05/16 10:17:38;;;;;;;10.18;3.42;;;;;;;24.07;45.83;95890.38;5025208;28;20201;-77
2022/05/16 10:20:14;;;;;;;8.32;2.88;;;;;;;23.87;47.22;95891.44;5030234;28;20176;-76
2022/05/16 10:22:39;;;;;;;3.92;2.60;;;;;;;23.83;47.49;95894.75;5009197;28;20616;-76
2022/05/16 10:25:10;;;;;;;5.30;2.90;;;;;;;23.26;49.37;95891.44;5020055;28;20222;-77
2022/05/16 10:27:37;;;;;;;9.00;3.05;;;;;;;23.66;48.48;95886.56;5021555;28;20202;-77
2022/05/16 10:30:07;;;;;;;6.72;2.90;;;;;;;23.57;49.13;95899.28;4994773;28;20177;-77
2022/05/16 10:35:34;;;;;;;7.32;3.20;;;;;;;22.87;51.16;95899.50;5008007;28;20270;-78
2022/05/16 10:38:07;;;;;;;6.80;3.35;;;;;;;22.95;50.58;95908.22;5034190;28;20200;-77
2022/05/16 10:40:45;;;;;;;6.68;2.80;;;;;;;22.50;50.76;95903.81;5014608;28;20181;-76
2022/05/16 10:43:57;;;;;;;3.63;2.42;;;;;;;22.81;51.22;95910.13;5017058;28;20210;-76
2022/05/16 10:46:27;;;;;;;5.18;2.53;;;;;;;23.06;50.38;95918.94;4934933;29;20210;-75
2022/05/16 10:48:53;;;;;;;6.38;2.70;;;;;;;23.36;49.13;95924.38;4922579;29;20191;-77
2022/05/16 10:51:28;;;;;;;6.75;2.83;;;;;;;23.24;49.45;95912.06;4908448;29;20328;-76
2022/05/16 10:54:05;;;;;;;6.20;2.47;;;;;;;23.13;50.71;95916.19;4931465;29;20193;-76
2022/05/16 10:56:49;;;;;;;6.38;2.38;;;;;;;22.15;53.26;95929.84;4944482;29;20232;-76
2022/05/16 10:59:24;;;;;;;7.50;2.65;;;;;;;22.08;53.18;95933.53;4935645;29;20276;-77
2022/05/16 11:01:59;;;;;;;4.85;2.90;;;;;;;22.08;52.82;95920.31;4901083;29;20250;-76
2022/05/16 11:04:43;;;;;;;2.92;1.80;;;;;;;22.69;51.64;95923.22;4901637;29;20654;-77
2022/05/16 11:07:17;;;;;;;5.80;1.90;;;;;;;22.45;52.24;95926.66;4907582;29;20216;-77
2022/05/16 11:09:59;;;;;;;4.35;2.10;;;;;;;22.29;51.89;95927.97;4932628;29;20200;-77
2022/05/16 11:12:30;;;;;;;6.30;2.00;;;;;;;22.06;52.02;95917.84;4936051;29;20191;-76
2022/05/16 11:15:29;;;;;;;3.05;1.63;;;;;;;21.86;51.77;95925.06;4938115;29;20223;-76
2022/05/16 11:18:15;;;;;;;3.35;1.33;;;;;;;21.51;52.19;95916.59;4949175;28;20220;-76
2022/05/16 11:20:43;;;;;;;5.20;1.70;;;;;;;21.62;52.11;95910.69;4942463;29;20253;-77
2022/05/16 11:23:26;;;;;;;3.17;1.80;;;;;;;21.01;52.53;95919.66;5035313;28;20201;-75
2022/05/16 11:25:58;;;;;;;5.45;1.65;;;;;;;21.07;53.81;95924.16;5036320;28;20228;-76
2022/05/16 11:28:35;;;;;;;3.88;1.50;;;;;;;20.94;53.15;95916.25;5043463;28;20182;-75
2022/05/16 11:31:03;;;;;;;4.00;1.60;;;;;;;20.73;53.28;95921.69;5010489;28;20208;-76
2022/05/16 11:33:35;;;;;;;5.32;1.67;;;;;;;20.51;54.99;95931.63;5015808;28;20182;-77
2022/05/16 11:36:05;;;;;;;4.07;1.73;;;;;;;20.31;55.76;95928.88;5000522;28;20624;-77
2022/05/16 11:38:37;;;;;;;4.63;1.50;;;;;;;20.12;55.80;95927.00;5013964;28;20178;-76
2022/05/16 11:41:17;;;;;;;3.38;1.40;;;;;;;19.64;58.96;95945.44;5013728;28;20186;-76
2022/05/16 11:43:45;;;;;;;7.38;2.15;;;;;;;19.34;62.93;95942.97;5014653;28;20174;-77
2022/05/16 11:46:23;;;;;;;5.47;2.28;;;;;;;18.71;69.14;95949.16;5028038;28;20214;-80
2022/05/16 11:49:12;;;;;;;7.07;2.30;;;;;;;18.01;71.77;95954.03;5048028;28;20181;-79
2022/05/16 11:51:48;;;;;;;2.42;1.52;;;;;;;17.42;73.36;95934.84;5007570;28;20244;-76
2022/05/16 11:54:15;;;;;;;3.70;1.75;;;;;;;17.61;73.77;95925.63;5045838;28;20318;-77
2022/05/16 12:02:27;;;;;;;3.35;1.80;;;;;;;18.29;73.84;95932.34;5040542;28;20252;-77
2022/05/16 12:05:02;;;;;;;3.75;1.83;;;;;;;18.47;73.92;95924.84;5041334;28;20569;-77
2022/05/16 12:07:35;;;;;;;2.70;1.95;;;;;;;18.57;76.34;95920.06;5062314;28;20193;-78
2022/05/16 12:10:22;;;;;;;4.43;1.70;;;;;;;18.71;75.30;95925.47;5052018;28;20200;-78
2022/05/16 12:13:04;;;;;;;2.55;1.70;;;;;;;18.83;74.98;95916.91;5025712;28;20648;-78
2022/05/16 12:15:30;;;;;;;6.68;2.33;;;;;;;18.95;74.98;95915.38;5019953;28;20773;-77
2022/05/16 12:18:21;;;;;;;5.50;2.10;;;;;;;18.90;76.47;95909.03;5002344;28;20624;-77